sensor_id;sensor_type;location;lat;lon;timestamp;pressure;altitude;pressure_sealevel;temperature;humidity
72210;BME280;60113;48.762;12.302;2023-04-25T00:01:59;96601.22;;;5.16;73.41
72210;BME280;60113;48.762;12.302;2023-04-25T00:04:25;96596.97;;;5.15;72.28
72210;BME280;60113;48.762;12.302;2023-04-25T00:06:53;96594.34;;;5.15;70.94
72210;BME280;60113;48.762;12.302;2023-04-25T00:09:19;96601.31;;;5.14;73.19
72210;BME280;60113;48.762;12.302;2023-04-25T00:11:44;96597.97;;;5.12;71.82
72210;BME280;60113;48.762;12.302;2023-04-25T00:14:10;96590.34;;;5.09;73.00
72210;BME280;60113;48.762;12.302;2023-04-25T00:16:35;96584.44;;;5.07;74.36
72210;BME280;60113;48.762;12.302;2023-04-25T00:19:01;96588.06;;;5.04;74.87
72210;BME280;60113;48.762;12.302;2023-04-25T00:21:27;96588.16;;;5.03;77.90
72210;BME280;60113;48.762;12.302;2023-04-25T00:23:53;96601.38;;;4.99;74.99
72210;BME280;60113;48.762;12.302;2023-04-25T00:26:19;96597.28;;;4.95;75.62
72210;BME280;60113;48.762;12.302;2023-04-25T00:28:46;96589.78;;;4.91;78.01
72210;BME280;60113;48.762;12.302;2023-04-25T00:31:12;96581.50;;;4.84;76.68
72210;BME280;60113;48.762;12.302;2023-04-25T00:33:37;96584.50;;;4.78;77.49
72210;BME280;60113;48.762;12.302;2023-04-25T00:36:03;96588.25;;;4.73;76.69
72210;BME280;60113;48.762;12.302;2023-04-25T00:38:28;96583.41;;;4.67;78.34
72210;BME280;60113;48.762;12.302;2023-04-25T00:40:54;96578.41;;;4.64;76.47
72210;BME280;60113;48.762;12.302;2023-04-25T00:43:21;96581.00;;;4.64;78.26
72210;BME280;60113;48.762;12.302;2023-04-25T00:45:47;96580.19;;;4.63;79.91
72210;BME280;60113;48.762;12.302;2023-04-25T00:48:17;96576.84;;;4.61;78.59
72210;BME280;60113;48.762;12.302;2023-04-25T00:50:51;96579.44;;;4.61;77.12
72210;BME280;60113;48.762;12.302;2023-04-25T00:53:17;96582.16;;;4.60;76.48
72210;BME280;60113;48.762;12.302;2023-04-25T00:55:42;96583.91;;;4.59;77.20
72210;BME280;60113;48.762;12.302;2023-04-25T00:58:08;96572.59;;;4.60;78.69
72210;BME280;60113;48.762;12.302;2023-04-25T01:00:33;96573.50;;;4.59;75.68
72210;BME280;60113;48.762;12.302;2023-04-25T01:02:59;96582.16;;;4.60;77.24
72210;BME280;60113;48.762;12.302;2023-04-25T01:05:25;96571.00;;;4.58;76.16
72210;BME280;60113;48.762;12.302;2023-04-25T01:07:50;96565.88;;;4.56;75.92
72210;BME280;60113;48.762;12.302;2023-04-25T01:10:16;96571.75;;;4.60;76.52
72210;BME280;60113;48.762;12.302;2023-04-25T01:12:42;96577.69;;;4.62;77.32
72210;BME280;60113;48.762;12.302;2023-04-25T01:15:07;96575.00;;;4.63;76.79
72210;BME280;60113;48.762;12.302;2023-04-25T01:17:34;96568.00;;;4.64;73.39
72210;BME280;60113;48.762;12.302;2023-04-25T01:20:03;96568.75;;;4.66;73.95
72210;BME280;60113;48.762;12.302;2023-04-25T01:22:28;96580.09;;;4.65;74.61
72210;BME280;60113;48.762;12.302;2023-04-25T01:24:54;96575.81;;;4.64;77.13
72210;BME280;60113;48.762;12.302;2023-04-25T01:27:21;96570.78;;;4.61;77.97
72210;BME280;60113;48.762;12.302;2023-04-25T01:29:48;96572.78;;;4.57;75.43
72210;BME280;60113;48.762;12.302;2023-04-25T01:32:14;96574.63;;;4.55;74.83
72210;BME280;60113;48.762;12.302;2023-04-25T01:34:40;96573.88;;;4.53;74.57
72210;BME280;60113;48.762;12.302;2023-04-25T01:37:05;96583.56;;;4.51;75.28
72210;BME280;60113;48.762;12.302;2023-04-25T01:39:31;96580.97;;;4.51;77.28
72210;BME280;60113;48.762;12.302;2023-04-25T01:41:57;96577.63;;;4.49;78.14
72210;BME280;60113;48.762;12.302;2023-04-25T01:44:23;96579.28;;;4.50;77.82
72210;BME280;60113;48.762;12.302;2023-04-25T01:46:48;96577.63;;;4.49;75.66
72210;BME280;60113;48.762;12.302;2023-04-25T01:49:14;96574.16;;;4.48;75.15
72210;BME280;60113;48.762;12.302;2023-04-25T01:51:39;96568.88;;;4.50;76.73
72210;BME280;60113;48.762;12.302;2023-04-25T01:54:05;96572.50;;;4.47;75.55
72210;BME280;60113;48.762;12.302;2023-04-25T01:56:32;96579.66;;;4.44;76.59
72210;BME280;60113;48.762;12.302;2023-04-25T01:58:58;96578.00;;;4.43;75.54
72210;BME280;60113;48.762;12.302;2023-04-25T02:01:23;96567.69;;;4.41;76.56
72210;BME280;60113;48.762;12.302;2023-04-25T02:03:48;96564.97;;;4.43;78.00
72210;BME280;60113;48.762;12.302;2023-04-25T02:06:14;96567.59;;;4.43;76.34
72210;BME280;60113;48.762;12.302;2023-04-25T02:08:39;96566.66;;;4.44;77.65
72210;BME280;60113;48.762;12.302;2023-04-25T02:11:05;96568.97;;;4.48;78.88
72210;BME280;60113;48.762;12.302;2023-04-25T02:13:30;96565.97;;;4.55;78.79
72210;BME280;60113;48.762;12.302;2023-04-25T02:15:56;96564.25;;;4.68;79.07
72210;BME280;60113;48.762;12.302;2023-04-25T02:18:22;96555.44;;;4.71;76.73
72210;BME280;60113;48.762;12.302;2023-04-25T02:20:48;96556.63;;;4.80;77.33
72210;BME280;60113;48.762;12.302;2023-04-25T02:23:13;96561.53;;;4.84;76.46
72210;BME280;60113;48.762;12.302;2023-04-25T02:25:40;96554.28;;;4.90;76.10
72210;BME280;60113;48.762;12.302;2023-04-25T02:28:06;96553.97;;;4.94;74.56
72210;BME280;60113;48.762;12.302;2023-04-25T02:30:31;96552.00;;;4.98;75.10
72210;BME280;60113;48.762;12.302;2023-04-25T02:32:56;96548.56;;;4.97;74.58
72210;BME280;60113;48.762;12.302;2023-04-25T02:35:22;96543.25;;;4.99;76.78
72210;BME280;60113;48.762;12.302;2023-04-25T02:37:47;96544.38;;;4.95;75.61
72210;BME280;60113;48.762;12.302;2023-04-25T02:40:13;96535.00;;;4.92;73.05
72210;BME280;60113;48.762;12.302;2023-04-25T02:42:38;96538.56;;;4.91;76.71
72210;BME280;60113;48.762;12.302;2023-04-25T02:45:04;96533.44;;;4.90;77.17
72210;BME280;60113;48.762;12.302;2023-04-25T02:47:30;96533.06;;;4.96;78.64
72210;BME280;60113;48.762;12.302;2023-04-25T02:49:55;96528.25;;;5.03;78.64
72210;BME280;60113;48.762;12.302;2023-04-25T02:52:21;96521.00;;;5.08;77.93
72210;BME280;60113;48.762;12.302;2023-04-25T02:54:46;96522.16;;;5.17;78.67
72210;BME280;60113;48.762;12.302;2023-04-25T02:57:12;96516.22;;;5.28;78.37
72210;BME280;60113;48.762;12.302;2023-04-25T02:59:37;96518.31;;;5.35;78.32
72210;BME280;60113;48.762;12.302;2023-04-25T03:02:03;96518.75;;;5.42;78.39
72210;BME280;60113;48.762;12.302;2023-04-25T03:04:28;96520.22;;;5.46;75.50
72210;BME280;60113;48.762;12.302;2023-04-25T03:06:53;96521.56;;;5.52;77.90
72210;BME280;60113;48.762;12.302;2023-04-25T03:09:19;96515.94;;;5.58;76.77
72210;BME280;60113;48.762;12.302;2023-04-25T03:11:45;96521.03;;;5.60;76.60
72210;BME280;60113;48.762;12.302;2023-04-25T03:14:11;96516.69;;;5.60;75.88
72210;BME280;60113;48.762;12.302;2023-04-25T03:16:38;96522.00;;;5.59;75.15
72210;BME280;60113;48.762;12.302;2023-04-25T03:19:04;96523.75;;;5.58;75.60
72210;BME280;60113;48.762;12.302;2023-04-25T03:21:31;96518.53;;;5.58;76.58
72210;BME280;60113;48.762;12.302;2023-04-25T03:24:01;96521.25;;;5.57;77.37
72210;BME280;60113;48.762;12.302;2023-04-25T03:26:27;96519.50;;;5.57;76.63
72210;BME280;60113;48.762;12.302;2023-04-25T03:28:52;96517.00;;;5.56;76.42
72210;BME280;60113;48.762;12.302;2023-04-25T03:31:18;96510.22;;;5.53;77.29
72210;BME280;60113;48.762;12.302;2023-04-25T03:33:43;96517.28;;;5.51;78.04
72210;BME280;60113;48.762;12.302;2023-04-25T03:36:08;96518.34;;;5.48;75.47
72210;BME280;60113;48.762;12.302;2023-04-25T03:38:34;96513.94;;;5.49;75.70
72210;BME280;60113;48.762;12.302;2023-04-25T03:41:01;96515.53;;;5.52;76.69
72210;BME280;60113;48.762;12.302;2023-04-25T03:43:26;96511.97;;;5.53;77.36
72210;BME280;60113;48.762;12.302;2023-04-25T03:45:52;96521.56;;;5.52;76.76
72210;BME280;60113;48.762;12.302;2023-04-25T03:48:17;96513.03;;;5.50;76.28
72210;BME280;60113;48.762;12.302;2023-04-25T03:50:43;96508.03;;;5.47;76.98
72210;BME280;60113;48.762;12.302;2023-04-25T03:53:08;96517.59;;;5.46;78.87
72210;BME280;60113;48.762;12.302;2023-04-25T03:55:34;96518.56;;;5.45;78.16
72210;BME280;60113;48.762;12.302;2023-04-25T03:57:59;96517.72;;;5.45;76.58
72210;BME280;60113;48.762;12.302;2023-04-25T04:00:25;96513.44;;;5.44;74.40
72210;BME280;60113;48.762;12.302;2023-04-25T04:02:51;96517.06;;;5.41;75.93
72210;BME280;60113;48.762;12.302;2023-04-25T04:05:16;96516.56;;;5.36;75.65
72210;BME280;60113;48.762;12.302;2023-04-25T04:07:42;96520.41;;;5.30;75.33
72210;BME280;60113;48.762;12.302;2023-04-25T04:10:11;96516.44;;;5.24;76.59
72210;BME280;60113;48.762;12.302;2023-04-25T04:12:37;96508.41;;;5.15;75.03
72210;BME280;60113;48.762;12.302;2023-04-25T04:15:04;96515.03;;;5.06;75.40
72210;BME280;60113;48.762;12.302;2023-04-25T04:17:30;96512.41;;;4.93;75.34
72210;BME280;60113;48.762;12.302;2023-04-25T04:19:56;96508.81;;;4.81;75.89
72210;BME280;60113;48.762;12.302;2023-04-25T04:22:22;96517.13;;;4.73;74.71
72210;BME280;60113;48.762;12.302;2023-04-25T04:24:48;96515.94;;;4.64;74.47
72210;BME280;60113;48.762;12.302;2023-04-25T04:27:18;96519.13;;;4.55;74.41
72210;BME280;60113;48.762;12.302;2023-04-25T04:29:45;96514.50;;;4.45;75.71
72210;BME280;60113;48.762;12.302;2023-04-25T04:32:12;96523.75;;;4.36;78.52
72210;BME280;60113;48.762;12.302;2023-04-25T04:34:37;96517.53;;;4.24;79.88
72210;BME280;60113;48.762;12.302;2023-04-25T04:37:04;96524.13;;;4.16;77.03
72210;BME280;60113;48.762;12.302;2023-04-25T04:39:30;96519.50;;;4.06;73.71
72210;BME280;60113;48.762;12.302;2023-04-25T04:41:58;96525.09;;;4.00;76.75
72210;BME280;60113;48.762;12.302;2023-04-25T04:44:24;96521.09;;;3.94;78.06
72210;BME280;60113;48.762;12.302;2023-04-25T04:46:50;96531.59;;;3.93;75.69
72210;BME280;60113;48.762;12.302;2023-04-25T04:49:16;96535.69;;;3.97;78.20
72210;BME280;60113;48.762;12.302;2023-04-25T04:51:42;96543.94;;;4.04;81.05
72210;BME280;60113;48.762;12.302;2023-04-25T04:54:09;96550.41;;;4.11;79.62
72210;BME280;60113;48.762;12.302;2023-04-25T04:56:35;96553.22;;;4.22;79.03
72210;BME280;60113;48.762;12.302;2023-04-25T04:59:01;96554.31;;;4.33;80.36
72210;BME280;60113;48.762;12.302;2023-04-25T05:01:28;96551.22;;;4.41;80.84
72210;BME280;60113;48.762;12.302;2023-04-25T05:03:55;96554.28;;;4.47;81.82
72210;BME280;60113;48.762;12.302;2023-04-25T05:06:26;96553.81;;;4.55;81.50
72210;BME280;60113;48.762;12.302;2023-04-25T05:08:51;96552.47;;;4.62;83.27
72210;BME280;60113;48.762;12.302;2023-04-25T05:11:18;96539.84;;;4.71;85.95
72210;BME280;60113;48.762;12.302;2023-04-25T05:13:44;96541.94;;;4.79;85.31
72210;BME280;60113;48.762;12.302;2023-04-25T05:16:09;96537.44;;;4.81;85.43
72210;BME280;60113;48.762;12.302;2023-04-25T05:18:35;96527.59;;;4.86;83.57
72210;BME280;60113;48.762;12.302;2023-04-25T05:21:01;96526.75;;;4.85;84.46
72210;BME280;60113;48.762;12.302;2023-04-25T05:23:26;96521.44;;;4.87;81.47
72210;BME280;60113;48.762;12.302;2023-04-25T05:25:53;96506.75;;;4.86;80.25
72210;BME280;60113;48.762;12.302;2023-04-25T05:28:18;96499.06;;;4.84;82.88
72210;BME280;60113;48.762;12.302;2023-04-25T05:30:44;96498.13;;;4.85;81.00
72210;BME280;60113;48.762;12.302;2023-04-25T05:33:10;96497.28;;;4.85;79.04
72210;BME280;60113;48.762;12.302;2023-04-25T05:35:35;96498.00;;;4.87;80.77
72210;BME280;60113;48.762;12.302;2023-04-25T05:38:01;96496.06;;;4.91;79.05
72210;BME280;60113;48.762;12.302;2023-04-25T05:40:27;96494.59;;;4.99;78.66
72210;BME280;60113;48.762;12.302;2023-04-25T05:42:52;96499.84;;;5.12;73.96
72210;BME280;60113;48.762;12.302;2023-04-25T05:45:17;96503.53;;;5.36;77.34
72210;BME280;60113;48.762;12.302;2023-04-25T05:47:43;96497.50;;;5.74;77.85
72210;BME280;60113;48.762;12.302;2023-04-25T05:50:09;96509.16;;;5.82;80.22
72210;BME280;60113;48.762;12.302;2023-04-25T05:52:34;96515.84;;;5.73;79.70
72210;BME280;60113;48.762;12.302;2023-04-25T05:55:00;96520.75;;;5.65;79.08
72210;BME280;60113;48.762;12.302;2023-04-25T05:57:26;96516.69;;;5.60;78.27
72210;BME280;60113;48.762;12.302;2023-04-25T05:59:52;96516.78;;;5.72;80.94
72210;BME280;60113;48.762;12.302;2023-04-25T06:02:19;96516.66;;;6.12;80.99
72210;BME280;60113;48.762;12.302;2023-04-25T06:04:45;96518.53;;;6.61;77.56
72210;BME280;60113;48.762;12.302;2023-04-25T06:07:10;96518.81;;;6.94;78.44
72210;BME280;60113;48.762;12.302;2023-04-25T06:09:36;96516.59;;;7.00;78.27
72210;BME280;60113;48.762;12.302;2023-04-25T06:12:02;96521.47;;;7.05;78.40
72210;BME280;60113;48.762;12.302;2023-04-25T06:14:27;96513.25;;;7.34;78.80
72210;BME280;60113;48.762;12.302;2023-04-25T06:16:53;96512.44;;;7.45;77.02
72210;BME280;60113;48.762;12.302;2023-04-25T06:19:18;96506.28;;;7.58;78.38
72210;BME280;60113;48.762;12.302;2023-04-25T06:21:44;96511.31;;;7.95;76.76
72210;BME280;60113;48.762;12.302;2023-04-25T06:24:09;96502.38;;;8.32;75.89
72210;BME280;60113;48.762;12.302;2023-04-25T06:26:35;96503.53;;;8.62;75.26
72210;BME280;60113;48.762;12.302;2023-04-25T06:29:01;96497.13;;;8.88;75.59
72210;BME280;60113;48.762;12.302;2023-04-25T06:31:27;96495.78;;;9.27;74.03
72210;BME280;60113;48.762;12.302;2023-04-25T06:33:54;96505.50;;;9.57;73.96
72210;BME280;60113;48.762;12.302;2023-04-25T06:36:20;96507.16;;;9.90;74.89
72210;BME280;60113;48.762;12.302;2023-04-25T06:38:50;96501.97;;;9.99;70.76
72210;BME280;60113;48.762;12.302;2023-04-25T06:41:16;96508.47;;;10.05;73.74
72210;BME280;60113;48.762;12.302;2023-04-25T06:43:42;96496.81;;;9.88;72.33
72210;BME280;60113;48.762;12.302;2023-04-25T06:46:07;96508.72;;;9.71;72.52
72210;BME280;60113;48.762;12.302;2023-04-25T06:48:33;96505.16;;;9.50;72.91
72210;BME280;60113;48.762;12.302;2023-04-25T06:50:58;96499.91;;;9.29;72.30
72210;BME280;60113;48.762;12.302;2023-04-25T06:53:24;96500.44;;;9.23;72.86
72210;BME280;60113;48.762;12.302;2023-04-25T06:55:50;96505.16;;;9.08;71.95
72210;BME280;60113;48.762;12.302;2023-04-25T06:58:15;96512.63;;;8.91;70.60
72210;BME280;60113;48.762;12.302;2023-04-25T07:00:41;96513.59;;;8.79;70.58
72210;BME280;60113;48.762;12.302;2023-04-25T07:03:07;96515.69;;;8.63;71.61
72210;BME280;60113;48.762;12.302;2023-04-25T07:05:32;96503.31;;;8.54;72.44
72210;BME280;60113;48.762;12.302;2023-04-25T07:07:57;96512.00;;;8.43;72.35
72210;BME280;60113;48.762;12.302;2023-04-25T07:10:23;96516.28;;;8.33;73.13
72210;BME280;60113;48.762;12.302;2023-04-25T07:12:48;96513.94;;;8.18;72.02
72210;BME280;60113;48.762;12.302;2023-04-25T07:15:14;96505.59;;;8.13;72.02
72210;BME280;60113;48.762;12.302;2023-04-25T07:17:39;96515.09;;;8.14;73.50
72210;BME280;60113;48.762;12.302;2023-04-25T07:20:05;96515.56;;;8.19;73.40
72210;BME280;60113;48.762;12.302;2023-04-25T07:22:32;96513.56;;;8.23;71.51
72210;BME280;60113;48.762;12.302;2023-04-25T07:24:57;96511.28;;;8.30;71.04
72210;BME280;60113;48.762;12.302;2023-04-25T07:27:23;96513.28;;;8.37;70.66
72210;BME280;60113;48.762;12.302;2023-04-25T07:29:48;96515.66;;;8.41;69.52
72210;BME280;60113;48.762;12.302;2023-04-25T07:32:13;96513.88;;;8.41;68.32
72210;BME280;60113;48.762;12.302;2023-04-25T07:34:39;96509.38;;;8.43;69.24
72210;BME280;60113;48.762;12.302;2023-04-25T07:37:05;96504.59;;;8.48;68.08
72210;BME280;60113;48.762;12.302;2023-04-25T07:39:30;96500.56;;;8.56;67.26
72210;BME280;60113;48.762;12.302;2023-04-25T07:41:56;96504.59;;;8.60;68.58
72210;BME280;60113;48.762;12.302;2023-04-25T07:44:24;96506.38;;;8.59;67.45
72210;BME280;60113;48.762;12.302;2023-04-25T07:46:49;96499.50;;;8.58;67.77
72210;BME280;60113;48.762;12.302;2023-04-25T07:49:15;96505.56;;;8.59;68.52
72210;BME280;60113;48.762;12.302;2023-04-25T07:51:41;96509.06;;;8.81;67.42
72210;BME280;60113;48.762;12.302;2023-04-25T07:54:09;96510.41;;;9.29;66.33
72210;BME280;60113;48.762;12.302;2023-04-25T07:56:34;96495.06;;;9.67;66.15
72210;BME280;60113;48.762;12.302;2023-04-25T07:59:00;96503.81;;;9.78;67.17
72210;BME280;60113;48.762;12.302;2023-04-25T08:01:25;96508.78;;;9.81;66.53
72210;BME280;60113;48.762;12.302;2023-04-25T08:03:52;96494.31;;;9.86;67.23
72210;BME280;60113;48.762;12.302;2023-04-25T08:06:17;96502.63;;;9.92;66.76
72210;BME280;60113;48.762;12.302;2023-04-25T08:08:43;96499.44;;;9.88;67.55
72210;BME280;60113;48.762;12.302;2023-04-25T08:11:08;96498.63;;;9.87;66.75
72210;BME280;60113;48.762;12.302;2023-04-25T08:13:34;96501.06;;;9.79;66.95
72210;BME280;60113;48.762;12.302;2023-04-25T08:15:59;96499.53;;;9.55;67.07
72210;BME280;60113;48.762;12.302;2023-04-25T08:18:25;96492.66;;;9.33;67.79
72210;BME280;60113;48.762;12.302;2023-04-25T08:20:50;96510.72;;;9.15;69.26
72210;BME280;60113;48.762;12.302;2023-04-25T08:23:16;96505.06;;;8.98;68.78
72210;BME280;60113;48.762;12.302;2023-04-25T08:25:41;96495.22;;;8.90;69.18
72210;BME280;60113;48.762;12.302;2023-04-25T08:28:06;96506.66;;;8.89;69.21
72210;BME280;60113;48.762;12.302;2023-04-25T08:30:32;96504.66;;;9.14;70.17
72210;BME280;60113;48.762;12.302;2023-04-25T08:32:57;96501.16;;;9.46;69.30
72210;BME280;60113;48.762;12.302;2023-04-25T08:35:23;96497.81;;;9.66;69.10
72210;BME280;60113;48.762;12.302;2023-04-25T08:37:48;96491.47;;;9.68;67.03
72210;BME280;60113;48.762;12.302;2023-04-25T08:40:15;96501.38;;;9.65;67.88
72210;BME280;60113;48.762;12.302;2023-04-25T08:42:44;96497.63;;;9.57;68.09
72210;BME280;60113;48.762;12.302;2023-04-25T08:45:10;96503.63;;;9.48;68.70
72210;BME280;60113;48.762;12.302;2023-04-25T08:47:37;96504.78;;;9.55;68.25
72210;BME280;60113;48.762;12.302;2023-04-25T08:50:04;96502.69;;;9.70;68.98
72210;BME280;60113;48.762;12.302;2023-04-25T08:52:36;96507.78;;;9.72;66.83
72210;BME280;60113;48.762;12.302;2023-04-25T08:55:03;96509.06;;;9.78;66.36
72210;BME280;60113;48.762;12.302;2023-04-25T08:57:31;96505.59;;;9.77;65.18
72210;BME280;60113;48.762;12.302;2023-04-25T08:59:57;96506.56;;;10.07;64.83
72210;BME280;60113;48.762;12.302;2023-04-25T09:02:24;96507.34;;;10.29;63.50
72210;BME280;60113;48.762;12.302;2023-04-25T09:04:50;96501.78;;;10.73;63.63
72210;BME280;60113;48.762;12.302;2023-04-25T09:07:15;96489.50;;;10.74;61.55
72210;BME280;60113;48.762;12.302;2023-04-25T09:09:43;96500.69;;;10.66;63.23
72210;BME280;60113;48.762;12.302;2023-04-25T09:12:09;96508.38;;;10.48;62.69
72210;BME280;60113;48.762;12.302;2023-04-25T09:14:35;96504.72;;;10.39;63.98
72210;BME280;60113;48.762;12.302;2023-04-25T09:17:04;96503.38;;;10.45;65.45
72210;BME280;60113;48.762;12.302;2023-04-25T09:19:35;96503.94;;;10.48;64.85
72210;BME280;60113;48.762;12.302;2023-04-25T09:22:04;96502.09;;;10.39;62.97
72210;BME280;60113;48.762;12.302;2023-04-25T09:24:50;96496.16;;;10.37;63.02
72210;BME280;60113;48.762;12.302;2023-04-25T09:27:20;96497.50;;;10.31;62.51
72210;BME280;60113;48.762;12.302;2023-04-25T09:29:48;96503.50;;;10.43;63.44
72210;BME280;60113;48.762;12.302;2023-04-25T09:32:24;96504.19;;;10.45;64.89
72210;BME280;60113;48.762;12.302;2023-04-25T09:34:54;96502.16;;;10.49;66.86
72210;BME280;60113;48.762;12.302;2023-04-25T09:39:56;96515.19;;;10.70;63.98
72210;BME280;60113;48.762;12.302;2023-04-25T09:42:23;96528.69;;;10.15;62.41
72210;BME280;60113;48.762;12.302;2023-04-25T09:44:55;96528.25;;;9.35;65.25
72210;BME280;60113;48.762;12.302;2023-04-25T09:47:23;96536.09;;;8.81;69.23
72210;BME280;60113;48.762;12.302;2023-04-25T09:49:49;96530.19;;;8.33;70.09
72210;BME280;60113;48.762;12.302;2023-04-25T09:52:20;96541.25;;;8.14;71.31
72210;BME280;60113;48.762;12.302;2023-04-25T09:54:47;96539.00;;;8.09;69.73
72210;BME280;60113;48.762;12.302;2023-04-25T09:57:17;96533.78;;;8.21;69.58
72210;BME280;60113;48.762;12.302;2023-04-25T09:59:47;96544.84;;;8.24;69.42
72210;BME280;60113;48.762;12.302;2023-04-25T10:02:16;96547.31;;;8.49;69.69
72210;BME280;60113;48.762;12.302;2023-04-25T10:04:44;96537.44;;;8.75;64.63
72210;BME280;60113;48.762;12.302;2023-04-25T10:07:13;96548.38;;;9.13;67.06
72210;BME280;60113;48.762;12.302;2023-04-25T10:09:39;96543.81;;;9.27;67.18
72210;BME280;60113;48.762;12.302;2023-04-25T10:12:06;96534.19;;;9.80;66.15
72210;BME280;60113;48.762;12.302;2023-04-25T10:14:33;96536.56;;;10.46;65.27
72210;BME280;60113;48.762;12.302;2023-04-25T10:16:59;96532.25;;;11.06;64.02
72210;BME280;60113;48.762;12.302;2023-04-25T10:19:26;96531.25;;;11.36;63.37
72210;BME280;60113;48.762;12.302;2023-04-25T10:22:17;96522.25;;;11.69;62.64
72210;BME280;60113;48.762;12.302;2023-04-25T10:24:43;96514.84;;;11.82;61.76
72210;BME280;60113;48.762;12.302;2023-04-25T10:27:11;96522.44;;;11.95;59.90
72210;BME280;60113;48.762;12.302;2023-04-25T10:29:37;96520.09;;;11.92;60.86
72210;BME280;60113;48.762;12.302;2023-04-25T10:32:02;96518.34;;;12.21;60.78
72210;BME280;60113;48.762;12.302;2023-04-25T10:37:05;96534.63;;;11.29;63.31
72210;BME280;60113;48.762;12.302;2023-04-25T10:39:32;96533.19;;;10.65;65.21
72210;BME280;60113;48.762;12.302;2023-04-25T10:41:58;96546.84;;;10.28;62.73
72210;BME280;60113;48.762;12.302;2023-04-25T10:44:30;96549.91;;;9.70;65.14
72210;BME280;60113;48.762;12.302;2023-04-25T10:46:59;96564.44;;;9.20;66.07
72210;BME280;60113;48.762;12.302;2023-04-25T10:49:41;96571.44;;;8.87;69.28
72210;BME280;60113;48.762;12.302;2023-04-25T10:54:46;96572.31;;;8.30;73.26
72210;BME280;60113;48.762;12.302;2023-04-25T10:57:40;96573.03;;;8.09;75.61
72210;BME280;60113;48.762;12.302;2023-04-25T11:00:14;96582.31;;;8.02;78.08
72210;BME280;60113;48.762;12.302;2023-04-25T11:03:00;96577.69;;;8.06;79.99
72210;BME280;60113;48.762;12.302;2023-04-25T11:07:55;96579.44;;;8.05;82.97
72210;BME280;60113;48.762;12.302;2023-04-25T11:10:28;96573.28;;;8.18;81.38
72210;BME280;60113;48.762;12.302;2023-04-25T11:12:54;96569.59;;;8.55;80.02
72210;BME280;60113;48.762;12.302;2023-04-25T11:15:20;96563.25;;;8.80;76.84
72210;BME280;60113;48.762;12.302;2023-04-25T11:17:46;96562.72;;;9.31;77.20
72210;BME280;60113;48.762;12.302;2023-04-25T11:20:12;96546.75;;;9.77;72.62
72210;BME280;60113;48.762;12.302;2023-04-25T11:22:39;96556.69;;;10.35;73.83
72210;BME280;60113;48.762;12.302;2023-04-25T11:25:09;96556.69;;;10.77;67.41
72210;BME280;60113;48.762;12.302;2023-04-25T11:27:57;96554.78;;;10.98;68.59
72210;BME280;60113;48.762;12.302;2023-04-25T11:30:24;96557.84;;;11.23;66.84
72210;BME280;60113;48.762;12.302;2023-04-25T11:32:50;96549.13;;;11.53;64.64
72210;BME280;60113;48.762;12.302;2023-04-25T11:35:18;96543.53;;;11.75;64.92
72210;BME280;60113;48.762;12.302;2023-04-25T11:37:44;96538.34;;;12.13;64.51
72210;BME280;60113;48.762;12.302;2023-04-25T11:40:10;96547.16;;;12.32;59.34
72210;BME280;60113;48.762;12.302;2023-04-25T11:42:37;96545.13;;;12.16;61.39
72210;BME280;60113;48.762;12.302;2023-04-25T11:45:03;96545.94;;;11.49;57.56
72210;BME280;60113;48.762;12.302;2023-04-25T11:47:33;96549.56;;;11.28;59.78
72210;BME280;60113;48.762;12.302;2023-04-25T11:49:59;96548.56;;;11.69;61.13
72210;BME280;60113;48.762;12.302;2023-04-25T11:52:41;96546.09;;;12.15;59.85
72210;BME280;60113;48.762;12.302;2023-04-25T11:55:17;96554.31;;;11.92;60.03
72210;BME280;60113;48.762;12.302;2023-04-25T11:57:45;96551.88;;;11.51;59.02
72210;BME280;60113;48.762;12.302;2023-04-25T12:00:12;96562.03;;;11.16;61.80
72210;BME280;60113;48.762;12.302;2023-04-25T12:02:45;96562.84;;;11.07;61.22
72210;BME280;60113;48.762;12.302;2023-04-25T12:05:12;96555.34;;;11.12;63.11
72210;BME280;60113;48.762;12.302;2023-04-25T12:07:38;96554.25;;;11.64;64.35
72210;BME280;60113;48.762;12.302;2023-04-25T12:10:09;96559.13;;;12.17;62.43
72210;BME280;60113;48.762;12.302;2023-04-25T12:12:36;96563.44;;;11.98;59.75
72210;BME280;60113;48.762;12.302;2023-04-25T12:15:23;96573.06;;;11.69;58.39
72210;BME280;60113;48.762;12.302;2023-04-25T12:17:50;96566.03;;;11.50;59.07
72210;BME280;60113;48.762;12.302;2023-04-25T12:20:18;96583.59;;;11.30;62.40
72210;BME280;60113;48.762;12.302;2023-04-25T12:22:46;96580.97;;;11.10;64.26
72210;BME280;60113;48.762;12.302;2023-04-25T12:28:11;96576.97;;;10.55;64.40
72210;BME280;60113;48.762;12.302;2023-04-25T12:31:00;96578.09;;;10.31;62.43
72210;BME280;60113;48.762;12.302;2023-04-25T12:33:27;96580.19;;;10.37;61.52
72210;BME280;60113;48.762;12.302;2023-04-25T12:35:54;96575.47;;;10.62;62.16
72210;BME280;60113;48.762;12.302;2023-04-25T12:40:51;96574.06;;;11.48;59.29
72210;BME280;60113;48.762;12.302;2023-04-25T12:43:17;96571.53;;;11.67;57.82
72210;BME280;60113;48.762;12.302;2023-04-25T12:45:44;96579.84;;;11.62;55.57
72210;BME280;60113;48.762;12.302;2023-04-25T12:48:09;96581.13;;;11.58;52.82
72210;BME280;60113;48.762;12.302;2023-04-25T12:50:35;96579.75;;;11.44;55.65
72210;BME280;60113;48.762;12.302;2023-04-25T12:53:00;96586.34;;;11.18;57.28
72210;BME280;60113;48.762;12.302;2023-04-25T12:55:26;96591.56;;;10.88;57.37
72210;BME280;60113;48.762;12.302;2023-04-25T12:57:51;96589.88;;;10.78;58.31
72210;BME280;60113;48.762;12.302;2023-04-25T13:00:17;96585.72;;;10.65;58.72
72210;BME280;60113;48.762;12.302;2023-04-25T13:02:45;96586.56;;;10.75;58.86
72210;BME280;60113;48.762;12.302;2023-04-25T13:05:12;96581.75;;;10.91;57.34
72210;BME280;60113;48.762;12.302;2023-04-25T13:07:37;96594.91;;;10.91;55.32
72210;BME280;60113;48.762;12.302;2023-04-25T13:10:03;96598.28;;;10.71;56.51
72210;BME280;60113;48.762;12.302;2023-04-25T13:12:29;96594.66;;;10.53;56.34